createdAt,value
2018-08-06T00:04:03.420Z,56.90
2018-08-06T00:14:08.423Z,56.90
2018-08-06T00:24:13.389Z,56.90
2018-08-06T00:34:18.284Z,57.00
2018-08-06T00:44:23.282Z,57.00
2018-08-06T01:04:32.621Z,57.10
2018-08-06T01:14:37.322Z,57.20
2018-08-06T01:24:41.997Z,57.10
2018-08-06T01:34:46.644Z,57.10
2018-08-06T01:44:51.432Z,57.20
2018-08-06T01:54:56.415Z,57.30
2018-08-06T02:05:01.167Z,57.00
2018-08-06T02:15:07.872Z,57.70
2018-08-06T02:25:13.006Z,57.30
2018-08-06T02:35:17.882Z,57.30
2018-08-06T02:45:22.607Z,57.30
2018-08-06T02:55:27.576Z,57.30
2018-08-06T03:05:32.443Z,57.30
2018-08-06T03:15:37.207Z,57.40
2018-08-06T03:25:42.005Z,57.40
2018-08-06T03:35:46.871Z,57.40
2018-08-06T03:45:51.835Z,57.40
2018-08-06T03:55:56.747Z,57.40
2018-08-06T04:06:01.646Z,57.40
2018-08-06T04:16:06.668Z,57.40
2018-08-06T04:26:11.206Z,57.50
2018-08-06T04:36:15.864Z,57.50
2018-08-06T04:46:21.225Z,57.50
2018-08-06T04:56:26.011Z,57.30
2018-08-06T05:06:30.723Z,57.30
2018-08-06T05:16:35.593Z,58.00
2018-08-06T05:26:40.351Z,58.80
2018-08-06T05:36:44.991Z,57.70
2018-08-06T05:46:49.848Z,57.50
2018-08-06T06:06:59.099Z,57.40
2018-08-06T06:17:03.867Z,56.60
2018-08-06T06:27:08.540Z,56.70
2018-08-06T06:37:13.420Z,56.50
2018-08-06T06:47:18.863Z,56.30
2018-08-06T06:57:23.494Z,56.80
2018-08-06T07:07:28.232Z,56.70
2018-08-06T07:17:33.417Z,56.80
2018-08-06T07:27:38.459Z,57.00
2018-08-06T07:37:43.246Z,57.20
2018-08-06T07:47:49.139Z,57.40
2018-08-06T07:57:53.994Z,58.20
2018-08-06T08:07:58.858Z,58.40
2018-08-06T08:18:03.594Z,58.80
2018-08-06T08:28:08.488Z,58.80
2018-08-06T08:38:13.392Z,58.70
2018-08-06T08:48:18.165Z,58.80
2018-08-06T08:58:23.645Z,58.90
2018-08-06T09:18:32.749Z,59.50
2018-08-06T09:28:37.546Z,59.80
2018-08-06T09:38:42.431Z,60.00
2018-08-06T09:48:47.279Z,60.00
2018-08-06T09:58:53.018Z,60.30
2018-08-06T10:19:04.376Z,60.50
2018-08-06T10:29:09.834Z,60.80
2018-08-06T10:39:14.584Z,61.30
2018-08-06T10:49:19.490Z,62.90
2018-08-06T10:59:24.415Z,64.00
2018-08-06T11:09:29.566Z,67.00
2018-08-06T11:19:34.323Z,65.80
2018-08-06T11:29:39.419Z,64.60
2018-08-06T11:39:44.165Z,63.90
2018-08-06T11:49:48.950Z,64.10
2018-08-06T11:59:53.876Z,63.60
2018-08-06T12:09:58.734Z,64.40
2018-08-06T12:20:05.000Z,65.30
2018-08-06T12:30:15.619Z,65.20
2018-08-06T12:40:22.621Z,64.70
2018-08-06T12:50:27.436Z,63.30
2018-08-06T13:00:32.921Z,62.50
2018-08-06T13:10:37.774Z,60.80
2018-08-06T13:20:42.585Z,59.50
2018-08-06T13:30:47.254Z,59.50
2018-08-06T13:40:51.921Z,58.90
2018-08-06T13:50:56.802Z,58.40
2018-08-06T14:11:07.255Z,56.90
2018-08-06T14:21:12.170Z,56.60
2018-08-06T14:31:16.955Z,56.20
2018-08-06T14:41:21.720Z,55.50
2018-08-06T15:01:31.715Z,54.80
2018-08-06T15:11:36.587Z,54.70
2018-08-06T15:21:41.307Z,54.50
2018-08-06T15:31:46.343Z,54.40
2018-08-06T15:41:51.273Z,54.00
2018-08-06T15:51:56.209Z,54.10
2018-08-06T16:02:00.989Z,54.40
2018-08-06T16:12:05.851Z,54.50
2018-08-06T16:22:10.815Z,56.50
2018-08-06T16:32:15.801Z,58.30
2018-08-06T16:42:21.114Z,59.00
2018-08-06T16:52:26.242Z,58.60
2018-08-06T17:02:31.095Z,58.00
2018-08-06T17:12:41.362Z,58.20
2018-08-06T17:22:47.411Z,58.30
2018-08-06T17:32:52.201Z,59.50
2018-08-06T17:42:57.250Z,59.40
2018-08-06T17:53:02.110Z,55.70
2018-08-06T18:03:07.113Z,53.90
2018-08-06T18:13:11.893Z,53.30
2018-08-06T18:23:16.781Z,53.10
2018-08-06T18:33:22.656Z,53.50
2018-08-06T18:43:27.379Z,53.50
2018-08-06T18:53:33.013Z,53.20
2018-08-06T19:03:38.016Z,53.10
2018-08-06T19:13:47.832Z,52.80
2018-08-06T19:23:56.733Z,52.90
2018-08-06T19:34:01.598Z,53.30
2018-08-06T19:44:06.816Z,53.40
2018-08-06T19:54:11.690Z,53.40
2018-08-06T20:04:16.489Z,53.70
2018-08-06T20:14:21.261Z,53.30
2018-08-06T20:24:26.278Z,52.80
2018-08-06T20:34:31.542Z,52.30
2018-08-06T20:44:38.859Z,52.30
2018-08-06T20:54:43.689Z,52.20
2018-08-06T21:04:49.217Z,51.90
2018-08-06T21:14:53.969Z,51.60
2018-08-06T21:24:58.916Z,51.70
2018-08-06T22:05:19.460Z,52.20
